Time;durP1;ratioP1;P1;durP2;ratioP2;P2;SDS_P1;SDS_P2;PMS_P1;PMS_P2;Temp;Humidity;BMP_temperature;BMP_pressure;BME280_temperature;BME280_humidity;BME280_pressure;Samples;Min_cycle;Max_cycle;Signal;HPM_P1;HPM_P2
2021/05/11 04:17:33;;;;;;;0.20;0.20;;;19.00;98.40;;;;;;4984317;28;20653;-77
2021/05/11 04:20:00;;;;;;;0.20;0.20;;;19.00;97.90;;;;;;4994816;28;20262;-77
2021/05/11 04:22:28;;;;;;;0.20;0.20;;;19.00;97.80;;;;;;4976266;28;20232;-76
2021/05/11 04:24:56;;;;;;;0.30;0.30;;;19.30;99.90;;;;;;4975989;28;20216;-78
2021/05/11 04:27:24;;;;;;;0.20;0.20;;;19.20;98.40;;;;;;4957024;28;20292;-77
2021/05/11 04:29:55;;;;;;;0.30;0.30;;;19.30;98.20;;;;;;4976279;28;20740;-77
2021/05/11 04:32:23;;;;;;;0.30;0.30;;;19.30;98.50;;;;;;4974502;28;20228;-77
2021/05/11 04:34:51;;;;;;;0.20;0.20;;;19.30;98.20;;;;;;4975082;28;20192;-77
2021/05/11 04:37:18;;;;;;;0.20;0.20;;;19.20;98.10;;;;;;4975968;28;20217;-77
2021/05/11 04:39:46;;;;;;;0.30;0.30;;;19.20;97.70;;;;;;4976038;28;20200;-77
2021/05/11 04:42:13;;;;;;;0.30;0.30;;;19.20;97.50;;;;;;4975950;28;20221;-78
2021/05/11 04:44:41;;;;;;;0.30;0.30;;;19.30;97.20;;;;;;4976607;28;20280;-78
2021/05/11 04:47:14;;;;;;;0.20;0.20;;;19.40;97.30;;;;;;4977313;28;20239;-78
2021/05/11 04:49:42;;;;;;;0.20;0.20;;;19.60;97.40;;;;;;4979217;28;20196;-78
2021/05/11 04:52:09;;;;;;;0.20;0.20;;;19.70;96.90;;;;;;4983544;28;20693;-77
2021/05/11 04:54:37;;;;;;;0.20;0.20;;;19.90;96.70;;;;;;4975570;28;20197;-77
2021/05/11 04:57:05;;;;;;;0.20;0.20;;;20.10;96.20;;;;;;4976470;28;20232;-78
2021/05/11 04:59:33;;;;;;;0.20;0.20;;;20.10;95.80;;;;;;4976299;28;20677;-78
2021/05/11 05:02:03;;;;;;;0.20;0.20;;;20.30;95.50;;;;;;4977389;28;20736;-78
2021/05/11 05:04:32;;;;;;;0.20;0.20;;;20.50;95.00;;;;;;4979152;28;20248;-78
2021/05/11 05:07:00;;;;;;;0.20;0.20;;;20.50;94.90;;;;;;4979148;28;20212;-77
2021/05/11 05:09:27;;;;;;;0.20;0.20;;;20.50;99.90;;;;;;4977140;28;20620;-77
2021/05/11 05:11:54;;;;;;;0.20;0.20;;;20.70;94.90;;;;;;4977494;28;20240;-77
2021/05/11 05:14:22;;;;;;;0.20;0.20;;;20.90;94.80;;;;;;4982164;28;20200;-78
2021/05/11 05:16:49;;;;;;;0.20;0.20;;;21.00;94.10;;;;;;4981694;28;20287;-78
2021/05/11 05:19:19;;;;;;;0.30;0.30;;;21.10;93.70;;;;;;4978129;28;20192;-78
2021/05/11 05:21:48;;;;;;;0.20;0.20;;;21.20;93.70;;;;;;4977997;28;20629;-78
2021/05/11 05:24:18;;;;;;;0.20;0.20;;;21.60;97.90;;;;;;4981729;28;20228;-77
2021/05/11 05:26:50;;;;;;;0.20;0.20;;;21.80;93.00;;;;;;4982743;28;20212;-77
2021/05/11 05:29:18;;;;;;;0.30;0.30;;;21.50;92.70;;;;;;4982494;28;20197;-79
2021/05/11 05:31:46;;;;;;;0.20;0.20;;;21.60;92.40;;;;;;4979816;28;20229;-79
2021/05/11 05:34:13;;;;;;;0.20;0.20;;;21.70;91.30;;;;;;4979222;28;20200;-78
2021/05/11 05:36:42;;;;;;;0.20;0.20;;;21.80;91.60;;;;;;4977334;28;20740;-79
2021/05/11 05:39:09;;;;;;;0.20;0.20;;;21.90;90.40;;;;;;4975497;28;20287;-79
2021/05/11 05:41:37;;;;;;;0.15;0.15;;;22.10;90.20;;;;;;4976412;28;20228;-76
2021/05/11 05:44:05;;;;;;;0.10;0.10;;;22.10;88.90;;;;;;4974886;28;20227;-77
2021/05/11 05:46:32;;;;;;;0.20;0.20;;;22.10;88.00;;;;;;4973827;28;20212;-78
2021/05/11 05:49:00;;;;;;;0.20;0.20;;;22.20;87.40;;;;;;4981543;28;20205;-77
2021/05/11 05:51:28;;;;;;;0.20;0.20;;;22.30;86.90;;;;;;4982394;28;20232;-78
2021/05/11 05:53:56;;;;;;;0.20;0.20;;;22.50;86.50;;;;;;4977977;28;20204;-78
2021/05/11 05:56:24;;;;;;;0.20;0.20;;;22.60;86.20;;;;;;4976227;28;20216;-78
2021/05/11 05:58:51;;;;;;;0.20;0.20;;;22.70;85.90;;;;;;4976173;28;20211;-78
2021/05/11 06:01:26;;;;;;;0.20;0.20;;;22.80;92.50;;;;;;4975304;28;20228;-78
2021/05/11 06:04:06;;;;;;;0.20;0.20;;;22.80;84.60;;;;;;4974934;28;20235;-78
2021/05/11 06:06:33;;;;;;;0.20;0.20;;;22.80;85.60;;;;;;4975262;28;20192;-79
2021/05/11 06:09:06;;;;;;;0.20;0.20;;;22.90;84.50;;;;;;4975436;28;20189;-78
2021/05/11 06:11:39;;;;;;;0.20;0.20;;;22.80;83.50;;;;;;4975084;28;20236;-78
2021/05/11 06:14:15;;;;;;;0.20;0.20;;;22.90;84.10;;;;;;4975864;28;20184;-80
2021/05/11 06:19:45;;;;;;;0.20;0.20;;;22.80;83.70;;;;;;4934542;29;20256;-80
2021/05/11 06:22:13;;;;;;;0.20;0.20;;;22.80;83.00;;;;;;4935214;29;20222;-79
2021/05/11 06:24:41;;;;;;;0.20;0.20;;;22.90;83.50;;;;;;4953197;28;20287;-79
2021/05/11 06:27:11;;;;;;;0.20;0.20;;;23.00;91.60;;;;;;4975257;28;20209;-78
2021/05/11 06:29:40;;;;;;;0.20;0.20;;;22.90;82.30;;;;;;4975260;28;20673;-79
2021/05/11 06:32:09;;;;;;;0.20;0.20;;;22.90;81.90;;;;;;4974374;28;20232;-78
2021/05/11 06:34:38;;;;;;;0.20;0.20;;;23.00;82.90;;;;;;4975244;28;20200;-77
2021/05/11 06:37:06;;;;;;;0.20;0.20;;;23.10;82.50;;;;;;4975788;28;20248;-78
2021/05/11 06:39:34;;;;;;;0.10;0.10;;;23.30;82.10;;;;;;4975601;28;20192;-78
2021/05/11 06:42:02;;;;;;;0.10;0.10;;;23.30;81.60;;;;;;4974765;28;20224;-78
2021/05/11 06:44:33;;;;;;;0.20;0.20;;;23.30;81.00;;;;;;4974933;28;20224;-78
2021/05/11 06:47:17;;;;;;;0.20;0.20;;;23.30;80.30;;;;;;4974530;28;20689;-78
2021/05/11 06:49:59;;;;;;;0.10;0.10;;;23.40;80.30;;;;;;4974909;28;20536;-79
2021/05/11 06:55:15;;;;;;;0.10;0.10;;;23.40;80.40;;;;;;4974571;28;20185;-77
2021/05/11 06:57:43;;;;;;;0.20;0.20;;;23.20;80.30;;;;;;4970311;28;20196;-76
2021/05/11 07:00:11;;;;;;;0.10;0.10;;;23.30;81.00;;;;;;4957345;28;20237;-77
2021/05/11 07:02:39;;;;;;;0.20;0.20;;;23.40;80.50;;;;;;4953297;28;20208;-79
2021/05/11 07:05:07;;;;;;;0.20;0.20;;;23.20;80.00;;;;;;4954479;29;20253;-78
2021/05/11 07:07:36;;;;;;;0.20;0.20;;;23.20;80.90;;;;;;4955263;28;20220;-79
2021/05/11 07:10:23;;;;;;;0.20;0.20;;;23.20;92.10;;;;;;4954412;28;20236;-78
2021/05/11 07:13:09;;;;;;;0.20;0.20;;;23.40;81.60;;;;;;4956068;29;20201;-78
2021/05/11 07:15:40;;;;;;;0.10;0.10;;;23.30;80.50;;;;;;4955165;29;20200;-79
2021/05/11 07:18:15;;;;;;;0.10;0.10;;;23.50;81.90;;;;;;4955756;28;20213;-78
2021/05/11 07:20:44;;;;;;;0.10;0.10;;;23.50;80.20;;;;;;4956167;28;20221;-79
2021/05/11 07:23:16;;;;;;;0.20;0.20;;;23.70;79.90;;;;;;4955576;29;20617;-78
2021/05/11 07:25:50;;;;;;;0.10;0.10;;;23.70;79.90;;;;;;4955642;29;20260;-78
2021/05/11 07:28:38;;;;;;;0.17;0.17;;;23.80;80.50;;;;;;4960433;28;20220;-78
2021/05/11 07:31:07;;;;;;;0.10;0.10;;;23.90;79.80;;;;;;4958576;28;20718;-78
2021/05/11 07:33:38;;;;;;;0.20;0.20;;;24.00;79.40;;;;;;4955229;28;20209;-77
2021/05/11 07:36:06;;;;;;;0.10;0.10;;;24.10;79.90;;;;;;4955339;28;20205;-79
2021/05/11 07:38:35;;;;;;;0.10;0.10;;;24.10;79.70;;;;;;4955625;28;20749;-77
2021/05/11 07:41:03;;;;;;;0.10;0.10;;;24.20;79.40;;;;;;4971634;28;20265;-78
2021/05/11 07:43:32;;;;;;;0.10;0.10;;;24.30;78.80;;;;;;4974248;28;20728;-78
2021/05/11 08:03:07;;;;;;;0.10;0.10;;;24.50;76.90;;;;;;4975327;28;20334;-77
2021/05/11 08:05:37;;;;;;;0.20;0.20;;;24.30;76.50;;;;;;4974807;28;20220;-78
2021/05/11 08:14:23;;;;;;;0.10;0.10;;;24.70;78.50;;;;;;4986531;28;20236;-76
2021/05/11 08:16:29;;;;;;;0.10;0.10;;;24.70;77.80;;;;;;4990969;28;20836;-78
2021/05/11 08:19:04;;;;;;;0.10;0.10;;;24.80;76.80;;;;;;4981844;28;20205;-78
2021/05/11 08:29:56;;;;;;;0.10;0.10;;;25.10;76.70;;;;;;4976486;28;20208;-78
2021/05/11 08:32:24;;;;;;;0.10;0.10;;;25.00;77.20;;;;;;4978387;28;20571;-77
2021/05/11 08:34:52;;;;;;;0.10;0.10;;;24.90;76.70;;;;;;4978079;28;20201;-79
2021/05/11 08:37:20;;;;;;;0.10;0.10;;;24.70;77.80;;;;;;4978731;28;20251;-78
2021/05/11 08:39:50;;;;;;;0.10;0.10;;;24.80;77.90;;;;;;4978201;28;20673;-78
2021/05/11 08:42:17;;;;;;;0.10;0.10;;;24.80;77.60;;;;;;4980022;28;20231;-78
2021/05/11 08:44:45;;;;;;;0.10;0.10;;;24.90;77.70;;;;;;4977740;28;20225;-78
2021/05/11 08:47:14;;;;;;;0.10;0.10;;;25.20;77.10;;;;;;4978545;28;20668;-79
2021/05/11 08:49:43;;;;;;;0.10;0.10;;;25.30;76.60;;;;;;4978232;28;20271;-77
2021/05/11 08:52:16;;;;;;;0.10;0.10;;;25.40;75.90;;;;;;4978613;28;20776;-79
2021/05/11 08:55:06;;;;;;;0.10;0.10;;;25.50;74.50;;;;;;4979019;28;20205;-78
2021/05/11 09:06:40;;;;;;;0.10;0.10;;;26.10;73.60;;;;;;4977663;28;20218;-77
2021/05/11 09:09:38;;;;;;;0.10;0.10;;;26.10;72.70;;;;;;4975363;28;20345;-77
2021/05/11 09:26:08;;;;;;;0.10;0.10;;;;;;;;;;4974854;28;20228;-76
2021/05/11 09:28:41;;;;;;;0.10;0.10;;;27.30;67.50;;;;;;4974929;28;20429;-78
2021/05/11 09:31:25;;;;;;;0.10;0.10;;;27.30;67.70;;;;;;4974768;28;20229;-77
2021/05/11 09:34:07;;;;;;;0.10;0.10;;;27.30;67.30;;;;;;4974328;28;20700;-76
2021/05/11 09:50:56;;;;;;;0.10;0.10;;;26.40;70.30;;;;;;5109520;28;20280;-78
2021/05/11 09:56:34;;;;;;;0.10;0.10;;;26.60;69.30;;;;;;5109711;28;20180;-79
2021/05/11 09:59:33;;;;;;;0.10;0.10;;;26.80;68.90;;;;;;5110898;28;20204;-79
2021/05/11 10:48:41;;;;;;;0.10;0.10;;;27.00;66.50;;;;;;5049082;28;20205;-79
2021/05/11 10:51:23;;;;;;;0.10;0.10;;;27.10;67.10;;;;;;5048669;28;20670;-79
2021/05/11 10:53:59;;;;;;;0.10;0.10;;;27.20;67.10;;;;;;5049638;28;20199;-79
2021/05/11 10:56:53;;;;;;;0.10;0.10;;;27.30;67.00;;;;;;5049898;28;20198;-79
2021/05/11 10:59:41;;;;;;;0.10;0.10;;;27.40;67.90;;;;;;5049499;28;20206;-78
2021/05/11 11:05:09;;;;;;;0.10;0.10;;;27.70;67.80;;;;;;5049541;28;20218;-79
2021/05/11 11:07:39;;;;;;;0.10;0.10;;;27.70;65.70;;;;;;5049951;28;20199;-79
2021/05/11 11:10:08;;;;;;;0.10;0.10;;;27.80;66.60;;;;;;5048967;28;20554;-78
2021/05/11 11:12:39;;;;;;;0.10;0.10;;;27.80;65.00;;;;;;5048921;28;20280;-79
2021/05/11 11:15:19;;;;;;;0.10;0.10;;;27.70;65.30;;;;;;5048994;28;20237;-78
2021/05/11 11:17:50;;;;;;;0.10;0.10;;;27.70;64.80;;;;;;5049157;28;20252;-80
2021/05/11 11:20:23;;;;;;;0.10;0.10;;;27.60;65.80;;;;;;5049636;28;20252;-78
2021/05/11 11:26:05;;;;;;;0.10;0.10;;;28.00;65.70;;;;;;5034877;28;20784;-79
2021/05/11 11:28:32;;;;;;;0.10;0.10;;;28.20;65.20;;;;;;5035865;28;20199;-79
2021/05/11 11:30:59;;;;;;;0.10;0.10;;;28.30;65.30;;;;;;5035253;28;20203;-77
2021/05/11 11:33:27;;;;;;;0.10;0.10;;;28.50;64.60;;;;;;5034964;28;20280;-78
2021/05/11 11:35:55;;;;;;;0.10;0.10;;;28.70;64.00;;;;;;5034578;28;20226;-79
2021/05/11 11:38:25;;;;;;;0.10;0.10;;;28.70;64.00;;;;;;5034737;28;20273;-79
2021/05/11 11:41:01;;;;;;;0.10;0.10;;;28.80;63.70;;;;;;5034852;28;20198;-78
2021/05/11 11:43:30;;;;;;;0.10;0.10;;;28.80;62.40;;;;;;5035184;28;20269;-78
2021/05/11 11:45:57;;;;;;;0.10;0.10;;;29.00;63.10;;;;;;5034459;28;20231;-77
2021/05/11 11:48:25;;;;;;;0.10;0.10;;;29.30;62.30;;;;;;5034869;28;20211;-78
2021/05/11 11:50:58;;;;;;;0.10;0.10;;;29.40;62.80;;;;;;5034837;28;20198;-78
2021/05/11 11:53:33;;;;;;;0.00;0.00;;;29.60;62.60;;;;;;5035877;28;20222;-79
2021/05/11 11:58:46;;;;;;;0.10;0.10;;;30.00;61.00;;;;;;5037862;28;20180;-78
2021/05/11 12:01:16;;;;;;;0.00;0.00;;;29.90;59.50;;;;;;5041576;28;20191;-78
2021/05/11 12:03:44;;;;;;;0.10;0.10;;;30.30;66.30;;;;;;5040889;28;20632;-79
2021/05/11 12:06:26;;;;;;;0.08;0.08;;;30.10;58.70;;;;;;5039596;28;20249;-79
2021/05/11 12:08:53;;;;;;;0.10;0.10;;;30.20;58.00;;;;;;5039539;28;20648;-79
2021/05/11 12:11:21;;;;;;;0.10;0.10;;;30.40;58.00;;;;;;5038014;28;20218;-78
2021/05/11 12:13:50;;;;;;;0.10;0.10;;;30.40;57.60;;;;;;5034818;28;20260;-76
2021/05/11 12:16:19;;;;;;;0.00;0.00;;;30.40;58.30;;;;;;5034190;28;20254;-77
2021/05/11 12:19:02;;;;;;;0.00;0.00;;;30.40;57.60;;;;;;5032987;28;20221;-77
2021/05/11 12:21:31;;;;;;;0.10;0.10;;;30.40;58.00;;;;;;5033798;28;20709;-78
2021/05/11 12:24:07;;;;;;;0.10;0.10;;;30.60;58.00;;;;;;5033361;28;20772;-78
2021/05/11 12:26:35;;;;;;;0.10;0.10;;;30.70;57.00;;;;;;5033656;28;20667;-78
2021/05/11 12:29:07;;;;;;;0.10;0.10;;;30.80;56.80;;;;;;5033942;28;20202;-78
2021/05/11 12:31:37;;;;;;;0.10;0.10;;;31.00;55.80;;;;;;5033522;28;20202;-78
2021/05/11 12:34:06;;;;;;;0.10;0.10;;;31.30;55.60;;;;;;5033664;28;20214;-78
2021/05/11 12:36:44;;;;;;;0.10;0.10;;;31.60;54.70;;;;;;5032299;28;20198;-79
2021/05/11 12:39:34;;;;;;;0.10;0.10;;;31.70;54.40;;;;;;5032775;28;20203;-77
2021/05/11 12:42:16;;;;;;;0.10;0.10;;;31.90;54.60;;;;;;5032866;28;20787;-79
2021/05/11 12:44:45;;;;;;;0.10;0.10;;;31.90;54.60;;;;;;5033295;28;20219;-78
2021/05/11 12:47:16;;;;;;;0.10;0.10;;;32.10;54.80;;;;;;5035061;28;20234;-80
2021/05/11 12:49:43;;;;;;;0.10;0.10;;;32.40;53.40;;;;;;5036185;28;20249;-80
2021/05/11 12:52:12;;;;;;;0.00;0.00;;;32.50;50.90;;;;;;5035901;28;20276;-81
2021/05/11 12:54:46;;;;;;;0.00;0.00;;;32.30;50.40;;;;;;5035754;28;20218;-81
2021/05/11 12:57:30;;;;;;;0.00;0.00;;;32.40;52.00;;;;;;5035298;28;20206;-81
2021/05/11 13:00:00;;;;;;;0.00;0.00;;;32.60;49.90;;;;;;5035156;28;20240;-81
2021/05/11 13:02:42;;;;;;;0.00;0.00;;;32.80;49.70;;;;;;5035408;28;20194;-79
2021/05/11 13:14:36;;;;;;;0.00;0.00;;;33.00;49.50;;;;;;5034667;28;20222;-81
2021/05/11 13:17:05;;;;;;;0.00;0.00;;;33.10;48.70;;;;;;5035303;28;20268;-81
2021/05/11 13:20:07;;;;;;;0.00;0.00;;;33.50;48.60;;;;;;5034816;28;20670;-81
2021/05/11 13:22:41;;;;;;;0.10;0.10;;;33.60;46.90;;;;;;5034585;28;20240;-81
2021/05/11 13:25:19;;;;;;;0.00;0.00;;;33.40;46.20;;;;;;5034691;28;20230;-79
2021/05/11 13:27:55;;;;;;;0.00;0.00;;;33.60;47.00;;;;;;5035704;28;20209;-81
2021/05/11 13:30:32;;;;;;;0.00;0.00;;;33.60;45.90;;;;;;5034595;28;20206;-80
2021/05/11 13:33:12;;;;;;;0.00;0.00;;;33.70;46.20;;;;;;5034306;28;20324;-81
2021/05/11 13:35:39;;;;;;;0.00;0.00;;;33.70;47.60;;;;;;5033184;28;20272;-78
2021/05/11 13:38:07;;;;;;;0.00;0.00;;;33.70;44.80;;;;;;5033503;28;20206;-80
2021/05/11 13:40:35;;;;;;;0.00;0.00;;;33.70;44.50;;;;;;5033486;28;20214;-79
2021/05/11 13:43:03;;;;;;;0.00;0.00;;;33.70;43.90;;;;;;5033281;28;20654;-79
2021/05/11 13:45:31;;;;;;;0.00;0.00;;;33.70;43.20;;;;;;5034176;28;20268;-80
2021/05/11 13:48:02;;;;;;;0.00;0.00;;;33.70;43.00;;;;;;5033894;28;20205;-81
2021/05/11 13:50:42;;;;;;;0.00;0.00;;;33.70;43.70;;;;;;5034607;28;20575;-80
2021/05/11 13:53:10;;;;;;;0.00;0.00;;;33.60;44.10;;;;;;5034294;28;20230;-81
2021/05/11 13:55:46;;;;;;;0.00;0.00;;;33.20;44.30;;;;;;5034055;28;20291;-80
2021/05/11 14:03:45;;;;;;;0.00;0.00;;;33.30;42.60;;;;;;5033358;28;20209;-79
2021/05/11 14:06:12;;;;;;;0.00;0.00;;;33.40;42.80;;;;;;5033074;28;20202;-80
2021/05/11 14:08:40;;;;;;;0.00;0.00;;;33.60;42.30;;;;;;5033146;28;20217;-80
2021/05/11 14:11:08;;;;;;;0.00;0.00;;;33.60;42.80;;;;;;5033275;28;20724;-79
2021/05/11 14:13:35;;;;;;;0.00;0.00;;;33.40;42.30;;;;;;5033091;28;20567;-79
2021/05/11 14:16:03;;;;;;;0.00;0.00;;;33.30;43.30;;;;;;5033135;28;20202;-81
2021/05/11 14:18:30;;;;;;;0.00;0.00;;;33.10;43.10;;;;;;5032928;28;20209;-80
2021/05/11 14:20:58;;;;;;;0.00;0.00;;;33.00;43.20;;;;;;5032775;28;20256;-78
2021/05/11 14:23:26;;;;;;;0.00;0.00;;;33.00;44.00;;;;;;5032605;28;20209;-80
2021/05/11 14:25:53;;;;;;;0.00;0.00;;;33.00;44.10;;;;;;5032740;28;20643;-80
2021/05/11 14:28:21;;;;;;;0.00;0.00;;;32.80;43.50;;;;;;5032973;28;20213;-79
2021/05/11 14:30:49;;;;;;;0.00;0.00;;;32.80;43.80;;;;;;5032750;28;20206;-79
2021/05/11 14:33:17;;;;;;;0.00;0.00;;;32.90;43.10;;;;;;5032897;28;20493;-79
2021/05/11 14:35:44;;;;;;;0.00;0.00;;;32.80;43.30;;;;;;5032607;28;20221;-79
2021/05/11 14:38:12;;;;;;;0.03;0.03;;;32.70;43.10;;;;;;5032970;28;20616;-78
2021/05/11 14:40:39;;;;;;;0.00;0.00;;;32.80;43.40;;;;;;5032746;28;20209;-80
2021/05/11 14:43:06;;;;;;;0.00;0.00;;;32.90;44.30;;;;;;5032397;28;20202;-79
2021/05/11 14:45:34;;;;;;;0.00;0.00;;;33.00;44.70;;;;;;5032524;28;20218;-79
2021/05/11 14:48:03;;;;;;;0.00;0.00;;;33.10;44.10;;;;;;5032679;28;20203;-79
2021/05/11 14:50:31;;;;;;;0.00;0.00;;;32.90;43.70;;;;;;5033201;28;20579;-80
2021/05/11 14:53:00;;;;;;;0.00;0.00;;;32.80;43.80;;;;;;5032783;28;20261;-79
2021/05/11 14:55:28;;;;;;;0.00;0.00;;;32.80;44.30;;;;;;5032269;28;20233;-78
2021/05/11 14:57:56;;;;;;;0.00;0.00;;;33.00;44.40;;;;;;5031420;28;20252;-76
2021/05/11 15:00:26;;;;;;;0.00;0.00;;;32.90;44.70;;;;;;5035572;28;20226;-78
2021/05/11 15:02:54;;;;;;;0.00;0.00;;;32.90;43.70;;;;;;5035352;28;20566;-77
2021/05/11 15:05:21;;;;;;;0.00;0.00;;;32.80;44.60;;;;;;5034920;28;20226;-78
2021/05/11 15:07:49;;;;;;;0.00;0.00;;;32.70;43.80;;;;;;5035480;28;20740;-77
2021/05/11 15:10:17;;;;;;;0.00;0.00;;;32.70;43.90;;;;;;5035461;28;20206;-78
2021/05/11 15:12:45;;;;;;;0.00;0.00;;;32.70;44.60;;;;;;5035443;28;20212;-77
2021/05/11 15:15:15;;;;;;;0.00;0.00;;;32.70;44.70;;;;;;5034821;28;20250;-77
2021/05/11 15:17:59;;;;;;;0.00;0.00;;;32.60;44.30;;;;;;5035065;28;20206;-77
2021/05/11 15:20:28;;;;;;;0.00;0.00;;;32.50;45.00;;;;;;5035198;28;20683;-78
2021/05/11 15:23:05;;;;;;;0.00;0.00;;;32.60;45.00;;;;;;5035512;28;20179;-79
2021/05/11 15:25:33;;;;;;;0.00;0.00;;;32.40;44.90;;;;;;5034469;28;20706;-79
2021/05/11 15:28:01;;;;;;;0.00;0.00;;;32.30;46.00;;;;;;5035174;28;20213;-78
2021/05/11 15:30:30;;;;;;;0.00;0.00;;;32.20;46.00;;;;;;5035109;28;20226;-79
2021/05/11 15:32:59;;;;;;;0.03;0.03;;;32.10;45.90;;;;;;5034806;28;20226;-78
2021/05/11 15:35:34;;;;;;;0.00;0.00;;;32.00;46.60;;;;;;5034929;28;20718;-78
2021/05/11 15:38:03;;;;;;;0.00;0.00;;;31.90;46.30;;;;;;5034650;28;20202;-78
2021/05/11 15:40:33;;;;;;;0.00;0.00;;;31.70;46.30;;;;;;5034916;28;20217;-79
2021/05/11 15:43:01;;;;;;;0.10;0.10;;;31.60;46.80;;;;;;5035074;28;20297;-79
2021/05/11 15:45:28;;;;;;;0.00;0.00;;;31.60;47.70;;;;;;5038346;28;20223;-80
2021/05/11 15:47:56;;;;;;;0.00;0.00;;;31.50;48.20;;;;;;5037942;28;20211;-80
2021/05/11 15:50:27;;;;;;;0.00;0.00;;;31.30;47.80;;;;;;5038642;28;20203;-82
2021/05/11 15:53:00;;;;;;;0.00;0.00;;;31.10;48.40;;;;;;5038142;28;20203;-79
2021/05/11 15:55:29;;;;;;;0.00;0.00;;;31.00;49.20;;;;;;5036162;28;20223;-80
2021/05/11 15:57:56;;;;;;;0.10;0.10;;;30.80;49.70;;;;;;5035772;28;20221;-79
2021/05/11 16:00:24;;;;;;;0.00;0.00;;;30.60;49.50;;;;;;5035069;28;20203;-79
2021/05/11 16:02:51;;;;;;;0.00;0.00;;;30.50;49.10;;;;;;5035292;28;20214;-80
2021/05/11 16:05:20;;;;;;;0.00;0.00;;;30.30;48.80;;;;;;5034894;28;20230;-80
2021/05/11 16:07:48;;;;;;;0.00;0.00;;;30.30;49.00;;;;;;5035565;28;20211;-79
2021/05/11 16:10:17;;;;;;;0.10;0.10;;;30.10;49.60;;;;;;5034794;28;20226;-75
2021/05/11 16:12:44;;;;;;;0.10;0.10;;;30.10;50.70;;;;;;5036939;28;20261;-78
2021/05/11 16:15:13;;;;;;;0.00;0.00;;;30.00;50.50;;;;;;5034953;28;20222;-78
2021/05/11 16:17:42;;;;;;;0.10;0.10;;;29.90;51.00;;;;;;5035197;28;20238;-79
2021/05/11 16:20:10;;;;;;;0.10;0.10;;;29.90;51.20;;;;;;5033784;28;20690;-79
2021/05/11 16:22:38;;;;;;;0.10;0.10;;;29.80;51.60;;;;;;5034289;28;20199;-81
2021/05/11 16:25:08;;;;;;;0.00;0.00;;;29.70;51.80;;;;;;5052549;22;20602;-77
2021/05/11 16:27:36;;;;;;;0.10;0.10;;;29.60;51.80;;;;;;5053785;28;20202;-76
2021/05/11 16:30:05;;;;;;;0.10;0.10;;;29.60;52.60;;;;;;5053223;28;20256;-76
2021/05/11 16:32:32;;;;;;;0.10;0.10;;;29.50;52.60;;;;;;5053604;28;20287;-76
2021/05/11 16:35:00;;;;;;;0.10;0.10;;;29.40;52.70;;;;;;5060168;28;20236;-77
2021/05/11 16:37:27;;;;;;;0.10;0.10;;;29.20;52.70;;;;;;5069658;28;20197;-79
2021/05/11 16:39:54;;;;;;;0.00;0.00;;;29.20;52.30;;;;;;5073449;28;20205;-76
2021/05/11 16:42:22;;;;;;;0.10;0.10;;;29.10;52.60;;;;;;5073848;28;20247;-75
2021/05/11 16:44:51;;;;;;;0.10;0.10;;;28.40;60.20;;;;;;5073271;28;20213;-76
2021/05/11 16:47:18;;;;;;;0.10;0.10;;;28.00;63.40;;;;;;5073792;28;20650;-76
2021/05/11 16:49:47;;;;;;;0.10;0.10;;;27.60;65.20;;;;;;5074169;28;20201;-77
2021/05/11 16:52:14;;;;;;;0.10;0.10;;;27.40;67.10;;;;;;5073775;28;20205;-76
2021/05/11 16:54:42;;;;;;;0.10;0.10;;;27.10;68.60;;;;;;5074804;28;20225;-78
2021/05/11 16:57:10;;;;;;;0.10;0.10;;;26.90;69.40;;;;;;5076292;28;20662;-76
2021/05/11 16:59:37;;;;;;;0.10;0.10;;;26.70;71.10;;;;;;5069686;28;20551;-75
2021/05/11 17:02:05;;;;;;;0.10;0.10;;;26.50;72.30;;;;;;5053373;28;20194;-75
2021/05/11 17:04:33;;;;;;;0.10;0.10;;;26.40;73.50;;;;;;5052623;28;20263;-75
2021/05/11 17:07:00;;;;;;;0.10;0.10;;;26.20;74.50;;;;;;5053916;28;20248;-75
2021/05/11 17:09:27;;;;;;;0.10;0.10;;;26.00;74.80;;;;;;5054811;28;20224;-75
2021/05/11 17:11:55;;;;;;;0.10;0.10;;;25.90;74.90;;;;;;5053916;28;21058;-74
2021/05/11 17:14:23;;;;;;;0.10;0.10;;;25.40;86.30;;;;;;5058346;28;20626;-75
2021/05/11 17:16:50;;;;;;;0.10;0.10;;;25.50;76.60;;;;;;5061481;28;20194;-75
2021/05/11 17:19:20;;;;;;;0.10;0.10;;;25.20;76.10;;;;;;5064327;28;20229;-74
2021/05/11 17:21:47;;;;;;;0.10;0.10;;;25.00;77.50;;;;;;5062307;28;20280;-75
2021/05/11 17:24:16;;;;;;;0.10;0.10;;;24.40;94.10;;;;;;5072141;28;20205;-76
2021/05/11 17:26:43;;;;;;;0.10;0.10;;;24.40;80.30;;;;;;5071964;28;20224;-75
2021/05/11 17:29:15;;;;;;;0.10;0.10;;;24.10;81.00;;;;;;5064706;28;20238;-76
2021/05/11 17:31:43;;;;;;;0.20;0.20;;;23.80;82.10;;;;;;5052660;28;20209;-76
2021/05/11 17:34:12;;;;;;;0.10;0.10;;;23.00;94.90;;;;;;5051940;28;20221;-75
2021/05/11 17:36:41;;;;;;;0.20;0.20;;;23.20;84.40;;;;;;5057550;28;20197;-76
2021/05/11 17:39:09;;;;;;;0.10;0.10;;;23.00;84.90;;;;;;5063511;28;20607;-76
2021/05/11 17:41:36;;;;;;;0.20;0.20;;;22.90;85.40;;;;;;5071930;28;20673;-76
2021/05/11 17:44:05;;;;;;;0.20;0.20;;;22.80;86.40;;;;;;5072027;28;20255;-76
2021/05/11 17:46:32;;;;;;;0.20;0.20;;;22.70;87.10;;;;;;5072595;28;20197;-76
2021/05/11 17:49:00;;;;;;;0.20;0.20;;;22.70;88.20;;;;;;5071942;28;20205;-75
2021/05/11 17:51:27;;;;;;;0.20;0.20;;;22.50;89.30;;;;;;5072360;28;20201;-78
2021/05/11 17:53:55;;;;;;;0.20;0.20;;;22.40;90.10;;;;;;5067565;28;20213;-76
2021/05/11 17:56:29;;;;;;;0.20;0.20;;;22.30;90.50;;;;;;5061350;28;20649;-76
2021/05/11 17:59:00;;;;;;;0.20;0.20;;;22.20;91.10;;;;;;5058947;28;20565;-76
2021/05/11 18:01:27;;;;;;;0.20;0.20;;;22.10;91.80;;;;;;5067768;28;20204;-76
2021/05/11 18:03:56;;;;;;;0.30;0.30;;;22.00;92.40;;;;;;5065045;28;20205;-76
2021/05/11 18:06:24;;;;;;;0.20;0.20;;;21.70;93.20;;;;;;5071710;28;20287;-76
2021/05/11 18:08:51;;;;;;;0.20;0.20;;;21.60;94.40;;;;;;5064533;28;20198;-76
2021/05/11 18:11:19;;;;;;;0.20;0.20;;;21.60;95.20;;;;;;5069194;28;20208;-75
2021/05/11 18:13:47;;;;;;;0.20;0.20;;;21.60;95.70;;;;;;5071556;28;20713;-75
2021/05/11 18:16:14;;;;;;;0.20;0.20;;;21.60;96.00;;;;;;5070924;28;20225;-77
2021/05/11 18:18:43;;;;;;;0.20;0.20;;;21.40;97.20;;;;;;5071974;28;20271;-75
2021/05/11 18:21:11;;;;;;;0.20;0.20;;;21.30;98.00;;;;;;5071347;28;20201;-76
2021/05/11 18:23:39;;;;;;;0.25;0.25;;;21.30;98.80;;;;;;5071938;28;20201;-76
2021/05/11 18:26:07;;;;;;;0.20;0.20;;;21.10;99.80;;;;;;5059619;28;20225;-76
2021/05/11 18:28:53;;;;;;;0.20;0.20;;;21.00;99.90;;;;;;5061962;28;20193;-75
2021/05/11 18:31:24;;;;;;;0.25;0.25;;;21.00;99.90;;;;;;5060983;28;20197;-76
2021/05/11 18:33:52;;;;;;;0.20;0.20;;;20.90;99.90;;;;;;5061967;28;20190;-76
2021/05/11 18:36:29;;;;;;;0.30;0.30;;;20.90;99.90;;;;;;5064745;28;20262;-77
2021/05/11 18:38:59;;;;;;;0.30;0.30;;;20.70;99.90;;;;;;5065239;28;20239;-76
2021/05/11 18:41:26;;;;;;;0.20;0.20;;;20.60;99.90;;;;;;5071705;28;20208;-77
2021/05/11 18:43:54;;;;;;;0.20;0.20;;;20.50;99.90;;;;;;5067522;28;20200;-76
2021/05/11 18:46:22;;;;;;;0.30;0.30;;;20.40;99.90;;;;;;5074108;28;20243;-76
2021/05/11 18:48:50;;;;;;;0.20;0.20;;;20.10;99.90;;;;;;5073987;28;20202;-76
2021/05/11 18:51:17;;;;;;;0.30;0.30;;;20.30;99.90;;;;;;5073489;28;20213;-77
2021/05/11 18:53:45;;;;;;;0.20;0.20;;;20.30;99.90;;;;;;5073320;28;20251;-76
2021/05/11 18:56:12;;;;;;;0.30;0.30;;;20.40;99.90;;;;;;5074279;28;20697;-77
2021/05/11 18:58:39;;;;;;;0.20;0.20;;;20.40;99.90;;;;;;5076155;28;20251;-77
2021/05/11 19:01:07;;;;;;;0.20;0.20;;;20.30;99.90;;;;;;5075041;28;20615;-76
2021/05/11 19:03:35;;;;;;;0.30;0.30;;;20.30;99.90;;;;;;5075350;28;20205;-76
2021/05/11 19:06:02;;;;;;;0.20;0.20;;;20.30;99.90;;;;;;5074918;28;20217;-76
2021/05/11 19:08:30;;;;;;;0.20;0.20;;;20.30;99.90;;;;;;5077460;28;20204;-77
2021/05/11 19:10:57;;;;;;;0.20;0.20;;;20.20;99.90;;;;;;5075939;28;20194;-77
2021/05/11 19:13:24;;;;;;;0.20;0.20;;;20.20;99.90;;;;;;5068824;28;20198;-76
2021/05/11 19:15:52;;;;;;;0.30;0.30;;;20.30;99.90;;;;;;5063842;28;20222;-78
2021/05/11 19:18:20;;;;;;;0.20;0.20;;;20.30;99.90;;;;;;5059165;28;20197;-77
2021/05/11 19:20:48;;;;;;;0.30;0.30;;;20.50;99.90;;;;;;5057776;28;20244;-77
2021/05/11 19:23:15;;;;;;;0.20;0.20;;;20.50;99.90;;;;;;5057662;28;20206;-78
2021/05/11 19:25:43;;;;;;;0.30;0.30;;;20.50;99.90;;;;;;5057122;28;20225;-76
2021/05/11 19:28:10;;;;;;;0.20;0.20;;;20.50;99.90;;;;;;5057334;28;20209;-78
2021/05/11 19:30:37;;;;;;;0.20;0.20;;;20.60;99.90;;;;;;5057257;28;20222;-77
2021/05/11 19:33:05;;;;;;;0.20;0.20;;;20.70;99.90;;;;;;5057920;28;20236;-77
2021/05/11 19:35:33;;;;;;;0.30;0.30;;;20.60;99.90;;;;;;5055185;28;20226;-77
2021/05/11 19:38:01;;;;;;;0.20;0.20;;;20.50;99.90;;;;;;5058377;28;20204;-77
2021/05/11 19:40:28;;;;;;;0.30;0.30;;;20.20;99.90;;;;;;5055317;28;20202;-77
2021/05/11 19:42:56;;;;;;;0.30;0.30;;;19.90;99.90;;;;;;5056795;28;20206;-78
2021/05/11 19:45:24;;;;;;;0.30;0.30;;;19.40;99.90;;;;;;5056930;28;20222;-77
2021/05/11 19:47:51;;;;;;;0.30;0.30;;;18.70;99.90;;;;;;5057878;28;20201;-78